createdAt,value
2017-09-18T00:01:18.981Z,-82
2017-09-18T00:13:17.275Z,-82
2017-09-18T00:25:12.891Z,-82
2017-09-18T00:37:08.446Z,-82
2017-09-18T00:49:04.233Z,-82
2017-09-18T01:00:59.828Z,-82
2017-09-18T01:12:55.744Z,-82
2017-09-18T01:24:52.742Z,-82
2017-09-18T01:36:49.767Z,-84
2017-09-18T01:48:46.266Z,-82
2017-09-18T02:00:40.688Z,-82
2017-09-18T02:12:36.764Z,-84
2017-09-18T02:24:32.744Z,-84
2017-09-18T02:36:28.025Z,-86
2017-09-18T02:48:23.575Z,-84
2017-09-18T03:00:20.242Z,-84
2017-09-18T03:12:16.149Z,-84
2017-09-18T03:24:14.162Z,-82
2017-09-18T03:36:09.018Z,-84
2017-09-18T03:48:05.903Z,-86
2017-09-18T04:00:02.284Z,-84
2017-09-18T04:12:01.500Z,-84
2017-09-18T04:23:58.441Z,-82
2017-09-18T04:35:55.028Z,-82
2017-09-18T04:47:52.679Z,-80
2017-09-18T04:59:58.426Z,-80
2017-09-18T05:11:58.649Z,-80
2017-09-18T05:48:50.628Z,-76
2017-09-18T06:00:54.353Z,-68
2017-09-18T06:24:51.060Z,-62
2017-09-18T06:36:56.477Z,-62
2017-09-18T06:49:01.772Z,-64
2017-09-18T07:01:10.983Z,-62
2017-09-18T07:13:15.035Z,-64
2017-09-18T07:25:22.331Z,-64
2017-09-18T07:37:25.984Z,-62
2017-09-18T07:49:41.361Z,-88
2017-09-18T08:01:39.056Z,-82
2017-09-18T08:13:49.312Z,-92
2017-09-18T08:25:53.491Z,-86
2017-09-18T08:38:34.444Z,-90
2017-09-18T08:50:41.326Z,-84
2017-09-18T09:02:47.742Z,-90
2017-09-18T09:27:08.752Z,-76
